Time;durP1;ratioP1;P1;durP2;ratioP2;P2;SDS_P1;SDS_P2;PMS_P1;PMS_P2;Temp;Humidity;BMP_temperature;BMP_pressure;BME280_temperature;BME280_humidity;BME280_pressure;Samples;Min_cycle;Max_cycle;Signal;HPM_P1;HPM_P2
2023/02/19 00:00:32;;;;;;;;;9.33;8.00;;;;;13.21;66.61;102014.38;2079287;28;46696;-62
2023/02/19 00:01:41;;;;;;;;;9.33;9.33;;;;;13.19;66.17;102016.19;2072939;28;46311;-60
2023/02/19 00:02:41;;;;;;;;;6.00;4.25;;;;;13.17;66.98;102009.94;2072664;28;47264;-61
2023/02/19 00:03:47;;;;;;;;;12.00;9.00;;;;;13.13;67.15;102008.22;2080555;28;45515;-61
2023/02/19 00:04:47;;;;;;;;;6.00;4.75;;;;;13.11;66.99;102013.59;2080272;28;46390;-60
2023/02/19 00:05:47;;;;;;;;;5.67;5.67;;;;;13.11;67.21;102023.38;2088748;28;46712;-60
2023/02/19 00:06:48;;;;;;;;;7.33;6.67;;;;;13.09;66.89;102017.19;2093834;28;46495;-61
2023/02/19 00:07:49;;;;;;;;;9.00;9.00;;;;;13.08;67.22;102012.72;2081649;28;46135;-60
2023/02/19 00:08:49;;;;;;;;;9.00;9.00;;;;;13.07;67.11;102009.16;2088907;28;46269;-61
2023/02/19 00:09:50;;;;;;;;;7.00;7.00;;;;;13.07;67.39;102014.50;2088190;28;46522;-58
2023/02/19 00:10:50;;;;;;;;;7.33;7.33;;;;;13.08;67.21;102013.59;2087925;28;46541;-58
2023/02/19 00:11:50;;;;;;;;;7.67;7.67;;;;;13.09;67.39;102023.38;2086483;28;46000;-59
2023/02/19 00:12:51;;;;;;;;;5.67;5.67;;;;;13.09;67.52;102018.06;2083424;28;46396;-60
2023/02/19 00:13:54;;;;;;;;;5.00;5.00;;;;;13.09;67.21;102015.41;2082843;28;45839;-59
2023/02/19 00:14:55;;;;;;;;;7.00;7.00;;;;;13.10;67.07;102021.59;2086229;28;46986;-58
2023/02/19 00:15:56;;;;;;;;;7.50;7.50;;;;;13.08;67.14;102010.03;2096460;28;46059;-59
2023/02/19 00:16:56;;;;;;;;;6.67;6.67;;;;;13.05;67.16;102026.09;2095137;28;46887;-60
2023/02/19 00:17:57;;;;;;;;;8.00;8.00;;;;;13.02;67.57;102026.13;2077748;28;46680;-61
2023/02/19 00:18:59;;;;;;;;;7.33;5.67;;;;;13.00;67.39;102022.59;2078921;28;46219;-60
2023/02/19 00:19:59;;;;;;;;;8.25;6.75;;;;;12.98;67.68;102014.63;2087542;28;47220;-61
2023/02/19 00:20:59;;;;;;;;;9.33;9.00;;;;;12.95;67.68;102015.50;2083665;28;46598;-59
2023/02/19 00:22:00;;;;;;;;;6.33;6.33;;;;;12.93;67.73;102011.09;2078776;28;46634;-61
2023/02/19 00:23:00;;;;;;;;;4.67;4.67;;;;;12.94;67.71;102012.88;2081674;28;46255;-60
2023/02/19 00:24:04;;;;;;;;;6.67;6.67;;;;;12.93;68.10;102012.00;2078696;28;46510;-61
2023/02/19 00:25:04;;;;;;;;;6.75;6.75;;;;;12.94;67.73;102015.53;2075641;28;46864;-60
2023/02/19 00:26:10;;;;;;;;;7.00;7.00;;;;;12.92;67.83;102012.88;2079994;28;46226;-61
2023/02/19 00:27:10;;;;;;;;;6.00;6.00;;;;;12.93;67.87;102005.78;2079931;28;46186;-59
2023/02/19 00:28:10;;;;;;;;;5.50;5.00;;;;;12.91;68.13;102003.13;2080834;28;46276;-61
2023/02/19 00:29:14;;;;;;;;;5.33;5.33;;;;;12.93;67.97;102005.78;2083401;28;46726;-60
2023/02/19 00:30:14;;;;;;;;;7.50;7.50;;;;;12.93;68.26;102011.09;2074356;28;46518;-60
2023/02/19 00:31:19;;;;;;;;;6.33;6.33;;;;;12.94;68.16;102013.75;2083854;28;46377;-61
2023/02/19 00:32:19;;;;;;;;;4.75;4.75;;;;;12.94;68.29;102019.06;2080314;28;46917;-59
2023/02/19 00:33:20;;;;;;;;;9.00;7.00;;;;;12.96;68.34;102013.75;2083822;28;46445;-58
2023/02/19 00:34:20;;;;;;;;;7.00;7.00;;;;;12.96;68.11;102013.75;2081437;28;45784;-60
2023/02/19 00:35:21;;;;;;;;;7.33;7.33;;;;;12.96;68.10;102011.97;2081392;28;46697;-61
2023/02/19 00:36:23;;;;;;;;;9.67;9.00;;;;;12.98;68.00;102019.06;2079960;28;46850;-60
2023/02/19 00:37:23;;;;;;;;;9.25;8.25;;;;;12.98;68.16;102005.75;2082084;28;46517;-60
2023/02/19 00:38:23;;;;;;;;;7.67;6.67;;;;;12.97;68.53;102002.19;2084752;28;46088;-60
2023/02/19 00:39:24;;;;;;;;;6.00;6.00;;;;;12.99;68.51;102012.84;2084774;28;46516;-61
2023/02/19 00:40:24;;;;;;;;;6.33;6.33;;;;;13.01;68.47;102003.91;2081303;28;46489;-60
2023/02/19 00:41:26;;;;;;;;;7.67;7.67;;;;;13.04;68.27;102008.31;2080459;28;46705;-60
2023/02/19 00:42:26;;;;;;;;;8.50;7.25;;;;;13.04;68.01;102009.22;2092240;28;46798;-62
2023/02/19 00:43:27;;;;;;;;;6.33;6.33;;;;;13.04;68.29;102006.53;2090696;28;46315;-61
2023/02/19 00:44:27;;;;;;;;;7.33;7.33;;;;;13.05;68.48;102002.97;2083869;28;46202;-61
2023/02/19 00:45:27;;;;;;;;;7.00;7.00;;;;;13.06;68.39;101999.41;2078074;28;45544;-60
2023/02/19 00:46:34;;;;;;;;;8.00;8.00;;;;;13.07;68.16;101993.19;2079665;28;46583;-59
2023/02/19 00:47:34;;;;;;;;;6.25;5.50;;;;;13.06;68.28;101978.09;2079207;28;46461;-60
2023/02/19 00:48:34;;;;;;;;;7.33;7.00;;;;;13.06;68.19;101979.88;2085777;28;46582;-59
2023/02/19 00:49:35;;;;;;;;;8.00;7.00;;;;;13.05;68.48;101983.44;2078856;28;46696;-60
2023/02/19 00:50:35;;;;;;;;;7.00;7.00;;;;;13.05;68.71;101992.31;2077277;28;46654;-60
2023/02/19 00:51:37;;;;;;;;;7.67;7.67;;;;;13.06;68.64;101993.19;2080185;28;46327;-60
2023/02/19 00:52:37;;;;;;;;;10.25;9.50;;;;;13.05;68.58;101994.09;2080450;28;46853;-60
2023/02/19 00:53:38;;;;;;;;;8.00;8.00;;;;;13.06;68.52;102003.84;2075733;28;46755;-60
2023/02/19 00:54:38;;;;;;;;;8.00;8.00;;;;;13.05;68.54;101991.44;2072224;28;46176;-59
2023/02/19 00:55:38;;;;;;;;;6.67;6.00;;;;;13.04;68.74;101985.22;2076235;28;46389;-58
2023/02/19 00:56:39;;;;;;;;;7.33;7.33;;;;;13.05;68.70;101986.09;2079786;28;46406;-59
2023/02/19 00:57:39;;;;;;;;;9.33;9.00;;;;;13.05;68.98;101979.00;2080454;28;46963;-60
2023/02/19 00:58:40;;;;;;;;;8.00;8.00;;;;;13.06;68.61;101974.53;2078567;28;46893;-60
2023/02/19 00:59:40;;;;;;;;;6.67;6.00;;;;;13.06;68.51;101995.88;2080043;28;46692;-60
2023/02/19 01:00:40;;;;;;;;;7.00;7.00;;;;;13.05;68.61;101984.31;2080301;28;46349;-60
2023/02/19 01:01:43;;;;;;;;;9.33;8.33;;;;;13.04;68.70;101979.91;2079917;28;46616;-61
2023/02/19 01:02:43;;;;;;;;;6.00;6.00;;;;;13.02;68.70;101979.03;2080386;28;46815;-59
2023/02/19 01:03:44;;;;;;;;;9.00;7.67;;;;;13.01;68.74;101974.59;2080121;28;46634;-60
2023/02/19 01:04:45;;;;;;;;;10.25;8.75;;;;;13.00;68.53;101979.97;2079312;28;46437;-60
2023/02/19 01:05:45;;;;;;;;;9.00;9.00;;;;;12.97;68.59;101978.22;2080021;28;46301;-59
2023/02/19 01:06:47;;;;;;;;;8.00;8.00;;;;;12.95;68.93;101991.53;2079596;28;46221;-61
2023/02/19 01:07:47;;;;;;;;;10.80;8.20;;;;;12.94;68.89;101984.44;2078258;28;46453;-61
2023/02/19 01:08:48;;;;;;;;;8.67;8.67;;;;;12.92;69.17;101980.91;2080281;28;46647;-59
2023/02/19 01:09:49;;;;;;;;;7.25;7.25;;;;;12.89;69.24;101986.28;2078700;28;46268;-60
2023/02/19 01:10:49;;;;;;;;;9.75;9.75;;;;;12.88;69.13;101983.66;2079313;28;46225;-60
2023/02/19 01:11:50;;;;;;;;;8.75;8.75;;;;;12.86;69.48;101982.78;2079399;28;46123;-60
2023/02/19 01:12:50;;;;;;;;;9.00;9.00;;;;;12.86;69.75;101989.00;2080301;28;46571;-60
2023/02/19 01:13:50;;;;;;;;;9.33;8.00;;;;;12.86;69.50;101993.44;2079875;28;46349;-60
2023/02/19 01:14:51;;;;;;;;;8.67;8.67;;;;;12.87;69.63;101989.88;2081905;28;46430;-60
2023/02/19 01:15:51;;;;;;;;;2.00;2.00;;;;;12.87;69.39;101992.53;2080523;28;45895;-61
2023/02/19 01:16:51;;;;;;;;;8.33;8.33;;;;;12.87;69.71;101993.41;2076818;28;46147;-60
2023/02/19 01:17:51;;;;;;;;;6.67;6.67;;;;;12.89;69.53;101983.63;2073620;28;46156;-60
2023/02/19 01:18:53;;;;;;;;;9.00;9.00;;;;;12.89;69.68;101996.94;2077926;28;46288;-60
2023/02/19 01:19:53;;;;;;;;;8.00;8.00;;;;;12.90;69.83;101985.38;2075745;28;46570;-61
2023/02/19 01:20:53;;;;;;;;;7.33;7.33;;;;;12.92;69.56;101985.38;2076661;28;46486;-60
2023/02/19 01:21:54;;;;;;;;;9.67;9.67;;;;;12.93;69.30;101992.44;2080100;28;46541;-60
2023/02/19 01:22:54;;;;;;;;;8.33;8.00;;;;;12.93;69.31;101980.00;2096282;28;46314;-59
2023/02/19 01:23:56;;;;;;;;;8.00;8.00;;;;;12.94;69.42;101981.78;2093958;28;46641;-60
2023/02/19 01:24:56;;;;;;;;;9.00;8.00;;;;;12.95;69.38;101988.88;2079642;28;46936;-59
2023/02/19 01:25:56;;;;;;;;;8.00;8.00;;;;;12.96;69.41;101989.78;2078299;28;46628;-60
2023/02/19 01:26:57;;;;;;;;;7.33;7.33;;;;;12.99;69.26;101994.19;2087514;28;46238;-60
2023/02/19 01:27:57;;;;;;;;;10.67;9.00;;;;;12.99;69.16;101991.53;2078623;28;46924;-60
2023/02/19 01:28:58;;;;;;;;;7.00;6.67;;;;;12.98;69.16;101985.31;2079522;28;45513;-61
2023/02/19 01:29:59;;;;;;;;;9.50;7.75;;;;;12.97;69.19;101986.22;2078698;28;46793;-60
2023/02/19 01:31:04;;;;;;;;;7.00;7.00;;;;;12.96;69.50;101990.66;2081010;28;46212;-59
2023/02/19 01:32:04;;;;;;;;;5.75;5.75;;;;;12.97;69.27;101991.53;2087505;28;45533;-59
2023/02/19 01:33:09;;;;;;;;;8.33;6.00;;;;;12.97;69.10;101991.53;2078626;28;46250;-59
2023/02/19 01:34:11;;;;;;;;;8.25;8.25;;;;;12.95;69.26;101985.31;2078375;28;46703;-59
2023/02/19 01:35:12;;;;;;;;;7.00;6.00;;;;;12.95;69.22;101991.53;2079006;28;46415;-59
2023/02/19 01:36:13;;;;;;;;;7.00;7.00;;;;;12.95;69.32;101985.31;2078158;28;46446;-60
2023/02/19 01:37:13;;;;;;;;;6.50;6.50;;;;;12.96;69.25;101989.78;2079054;28;46525;-60
2023/02/19 01:38:13;;;;;;;;;6.00;6.00;;;;;12.97;69.30;102002.19;2076980;28;46731;-61
2023/02/19 01:39:14;;;;;;;;;5.00;5.00;;;;;12.98;69.11;101997.75;2079225;28;46272;-60
2023/02/19 01:40:14;;;;;;;;;10.00;7.00;;;;;12.98;69.10;102003.09;2078056;28;46650;-61
2023/02/19 01:41:18;;;;;;;;;7.00;6.00;;;;;12.97;69.28;101996.88;2073910;28;46829;-60
2023/02/19 01:42:19;;;;;;;;;6.00;6.00;;;;;12.98;69.43;101998.63;2078705;28;46402;-59
2023/02/19 01:43:19;;;;;;;;;8.00;7.00;;;;;13.00;69.57;102007.50;2078374;28;46394;-60
2023/02/19 01:44:19;;;;;;;;;7.00;7.00;;;;;12.98;69.36;101998.63;2075570;28;46516;-60
2023/02/19 01:45:31;;;;;;;;;8.00;6.00;;;;;12.97;69.35;101996.88;2072979;28;46399;-61
2023/02/19 01:46:34;;;;;;;;;5.75;5.75;;;;;12.97;69.51;101991.53;2070335;28;45465;-60
2023/02/19 01:47:34;;;;;;;;;7.50;7.50;;;;;12.98;69.54;101997.75;2071064;28;46723;-60
2023/02/19 01:48:37;;;;;;;;;6.00;6.00;;;;;12.98;69.39;101998.63;2084716;28;46395;-61
2023/02/19 01:49:53;;;;;;;;;6.25;6.25;;;;;13.01;69.46;102000.38;2078738;28;46582;-59
2023/02/19 01:51:07;;;;;;;;;5.75;5.75;;;;;13.00;69.32;102001.28;2078877;28;46311;-60
2023/02/19 01:52:17;;;;;;;;;6.75;6.75;;;;;13.00;69.32;102011.94;2077047;28;46301;-60
2023/02/19 01:53:22;;;;;;;;;6.00;6.00;;;;;13.01;69.27;102009.25;2077993;28;45642;-59
2023/02/19 01:54:29;;;;;;;;;5.25;5.25;;;;;13.02;69.52;102000.34;2073851;28;46832;-60
2023/02/19 01:55:31;;;;;;;;;5.75;5.25;;;;;13.04;69.29;102000.34;2075369;28;46384;-61
2023/02/19 01:56:35;;;;;;;;;6.00;5.00;;;;;13.06;69.32;101995.88;2076042;28;46939;-60
2023/02/19 01:57:41;;;;;;;;;5.50;5.50;;;;;13.07;69.16;101997.63;2078613;28;46517;-58
2023/02/19 01:58:41;;;;;;;;;6.00;6.00;;;;;13.09;69.11;102003.84;2076960;28;46535;-61
2023/02/19 01:59:42;;;;;;;;;5.00;5.00;;;;;13.09;69.22;102001.19;2077400;28;46347;-60
2023/02/19 02:00:43;;;;;;;;;5.00;5.00;;;;;13.08;69.23;101999.38;2080119;28;45697;-60
2023/02/19 02:01:43;;;;;;;;;5.33;5.00;;;;;13.10;69.01;102002.94;2079595;28;45327;-61
2023/02/19 02:02:48;;;;;;;;;7.00;5.33;;;;;13.12;68.83;102011.81;2083768;28;46979;-59
2023/02/19 02:03:48;;;;;;;;;5.25;5.25;;;;;13.12;68.98;102007.34;2079991;28;46089;-61
2023/02/19 02:04:48;;;;;;;;;7.00;5.67;;;;;13.13;69.13;102002.91;2081046;28;45522;-59
2023/02/19 02:06:00;;;;;;;;;6.33;6.33;;;;;13.13;68.95;102003.78;2078240;28;45497;-61
2023/02/19 02:10:18;;;;;;;;;7.50;5.25;;;;;13.14;68.88;102000.22;2101973;28;47670;-60
2023/02/19 02:11:04;;;;;;;;;5.25;5.25;;;;;13.13;68.94;101995.78;2079546;28;46147;-59
2023/02/19 02:12:04;;;;;;;;;6.00;5.00;;;;;13.13;68.86;101998.44;2080280;28;46288;-60
2023/02/19 02:13:04;;;;;;;;;6.00;6.00;;;;;13.13;69.12;101997.56;2077278;28;46419;-61
2023/02/19 02:14:05;;;;;;;;;4.00;4.00;;;;;13.12;69.01;102002.03;2079660;28;46286;-60
2023/02/19 02:15:06;;;;;;;;;3.67;3.67;;;;;13.13;68.95;102000.25;2087272;28;46274;-60
2023/02/19 02:16:22;;;;;;;;;4.00;4.00;;;;;13.16;69.36;102000.19;2087343;28;46518;-61
2023/02/19 02:17:47;;;;;;;;;5.75;5.00;;;;;13.18;69.00;101982.41;2087516;28;46952;-61
2023/02/19 02:18:56;;;;;;;;;6.00;6.00;;;;;13.18;68.88;101999.31;2071064;28;46780;-61
2023/02/19 02:20:39;;;;;;;;;5.00;5.00;;;;;13.20;69.00;102000.16;2079404;28;46514;-61
2023/02/19 02:21:56;;;;;;;;;4.00;3.25;;;;;13.19;68.61;102001.06;2078393;28;46981;-61
2023/02/19 02:23:18;;;;;;;;;3.00;3.00;;;;;13.20;68.98;102001.94;2078050;28;46598;-61
2023/02/19 02:24:54;;;;;;;;;6.25;5.25;;;;;13.20;68.54;102008.16;2069040;28;46268;-60
2023/02/19 02:25:57;;;;;;;;;2.50;2.50;;;;;13.21;68.51;102004.63;2074248;28;46661;-63
2023/02/19 02:27:48;;;;;;;;;5.00;4.50;;;;;13.22;68.57;101998.38;2078080;28;46749;-61
2023/02/19 02:29:12;;;;;;;;;3.25;3.25;;;;;13.23;68.41;101994.81;2038622;28;46923;-60
2023/02/19 02:30:25;;;;;;;;;3.25;2.50;;;;;13.24;68.42;101990.38;2046519;28;46927;-60
2023/02/19 02:31:39;;;;;;;;;3.50;3.50;;;;;13.25;68.42;102000.13;2052684;28;47026;-61
2023/02/19 02:32:59;;;;;;;;;5.75;5.75;;;;;13.25;68.32;101995.69;2049018;28;46248;-61
2023/02/19 02:34:11;;;;;;;;;4.75;3.00;;;;;13.27;68.32;102000.09;2045592;28;46805;-60
2023/02/19 02:35:18;;;;;;;;;3.00;3.00;;;;;13.28;68.41;102005.41;2045745;28;46818;-61
2023/02/19 02:36:23;;;;;;;;;4.25;3.75;;;;;13.30;68.38;102005.38;2046002;28;46317;-59
2023/02/19 02:37:27;;;;;;;;;3.50;3.50;;;;;13.32;68.21;102008.91;2048089;28;46895;-60
2023/02/19 02:38:30;;;;;;;;;3.75;3.75;;;;;13.34;68.03;102007.09;2046136;28;46425;-60
2023/02/19 02:39:31;;;;;;;;;4.25;4.25;;;;;13.35;68.12;102004.44;2045601;28;46895;-63
2023/02/19 02:40:32;;;;;;;;;4.25;4.25;;;;;13.36;68.08;102006.22;2046077;28;45927;-60
2023/02/19 02:41:32;;;;;;;;;4.33;4.33;;;;;13.37;68.08;102007.97;2045408;28;46732;-60
2023/02/19 02:42:37;;;;;;;;;5.33;4.33;;;;;13.38;67.91;102007.06;2045775;28;46399;-60
2023/02/19 02:43:37;;;;;;;;;3.25;3.25;;;;;13.41;68.15;102012.34;2044967;28;46391;-60
2023/02/19 02:44:39;;;;;;;;;3.33;3.33;;;;;13.43;68.04;102012.31;2035255;28;46352;-60
2023/02/19 02:45:40;;;;;;;;;2.50;2.50;;;;;13.46;67.70;102012.28;2044328;28;45174;-60
2023/02/19 02:46:44;;;;;;;;;3.00;3.00;;;;;13.45;67.77;102003.41;2053188;28;46254;-61
2023/02/19 02:47:54;;;;;;;;;3.00;3.00;;;;;13.46;67.53;102002.50;2045519;28;46984;-61
2023/02/19 02:48:58;;;;;;;;;3.50;2.50;;;;;13.45;67.46;101998.06;2047946;28;46823;-60
2023/02/19 02:50:05;;;;;;;;;3.00;3.00;;;;;13.45;67.30;102005.19;2045929;28;46598;-61
2023/02/19 02:51:24;;;;;;;;;5.00;3.00;;;;;13.43;67.24;101999.88;2037866;28;46408;-62
2023/02/19 02:55:10;;;;;;;;;2.00;2.00;;;;;13.36;67.41;102006.22;2042235;28;46562;-59
2023/02/19 02:56:14;;;;;;;;;2.75;2.75;;;;;13.35;67.43;101999.13;2051766;28;46370;-60
2023/02/19 02:57:16;;;;;;;;;2.00;2.00;;;;;13.36;67.11;102000.88;2038109;28;46417;-61
2023/02/19 02:58:18;;;;;;;;;5.00;3.50;;;;;13.38;67.50;102006.19;2041780;28;46006;-62
2023/02/19 02:59:23;;;;;;;;;5.25;4.25;;;;;13.38;67.52;102001.72;2045984;28;46026;-61
2023/02/19 03:02:09;;;;;;;;;4.00;3.00;;;;;13.38;67.44;102004.41;2038018;28;46458;-61
2023/02/19 03:03:11;;;;;;;;;4.50;4.50;;;;;13.38;67.46;102006.19;2045739;28;46828;-61
2023/02/19 03:04:22;;;;;;;;;3.00;2.00;;;;;13.37;67.21;102001.75;2046037;28;47191;-61
2023/02/19 03:06:47;;;;;;;;;3.75;3.75;;;;;13.35;67.29;102004.44;2078565;28;46297;-60
2023/02/19 03:07:59;;;;;;;;;2.75;2.75;;;;;13.35;67.40;102007.13;2079263;28;47847;-62
2023/02/19 03:09:28;;;;;;;;;3.00;3.00;;;;;13.36;67.31;102008.88;2093903;28;46517;-60
2023/02/19 03:10:37;;;;;;;;;2.50;2.50;;;;;13.37;67.35;102009.75;2080194;28;46877;-61
2023/02/19 03:20:14;;;;;;;;;3.00;2.75;;;;;13.34;67.28;102001.78;2070489;28;46158;-60
2023/02/19 03:21:17;;;;;;;;;3.00;3.00;;;;;13.34;67.43;102001.78;2069856;28;45212;-60
2023/02/19 03:22:24;;;;;;;;;3.75;2.50;;;;;13.33;67.38;102005.34;2070098;28;46305;-58
2023/02/19 03:26:02;;;;;;;;;3.00;3.00;;;;;13.35;67.46;101995.56;2070268;28;45592;-61
2023/02/19 03:26:24;;;;;;;;;3.25;2.00;;;;;13.35;67.17;102001.78;2061814;28;46130;-60
2023/02/19 03:27:29;;;;;;;;;3.00;3.00;;;;;13.35;67.04;101996.44;2069417;28;47085;-60
2023/02/19 03:29:54;;;;;;;;;2.25;2.25;;;;;13.34;67.23;101999.09;2066157;28;46978;-60
2023/02/19 03:30:54;;;;;;;;;3.25;3.00;;;;;13.32;67.34;101992.91;2066098;28;45867;-62
2023/02/19 03:32:03;;;;;;;;;3.00;3.00;;;;;13.31;67.27;101985.81;2064357;28;46741;-60
2023/02/19 03:33:09;;;;;;;;;2.75;2.50;;;;;13.31;67.10;101992.03;2063397;28;47359;-60
2023/02/19 03:34:16;;;;;;;;;3.00;3.00;;;;;13.30;67.08;101992.06;2069562;28;45719;-58
2023/02/19 03:35:21;;;;;;;;;3.75;2.75;;;;;13.30;67.32;101992.94;2071520;28;46565;-61
2023/02/19 03:36:24;;;;;;;;;2.75;2.75;;;;;13.29;67.14;101988.50;2062982;28;47486;-59
2023/02/19 03:37:45;;;;;;;;;1.75;1.75;;;;;13.28;67.06;101992.09;2063880;28;45776;-60
2023/02/19 03:39:01;;;;;;;;;2.00;2.00;;;;;13.28;67.18;101993.88;2071768;28;47136;-59
2023/02/19 03:40:01;;;;;;;;;2.00;2.00;;;;;13.29;66.89;101992.97;2072184;28;47091;-60
2023/02/19 03:41:31;;;;;;;;;2.33;1.67;;;;;13.29;67.14;101987.63;2071280;28;46591;-61
2023/02/19 03:42:43;;;;;;;;;2.00;2.00;;;;;13.31;66.76;101999.16;2071578;28;46686;-60
2023/02/19 03:44:00;;;;;;;;;2.00;2.00;;;;;13.32;66.64;101992.91;2071765;28;46916;-59
2023/02/19 03:45:22;;;;;;;;;1.75;1.00;;;;;13.31;66.42;101985.81;2071490;28;46804;-59
2023/02/19 03:46:35;;;;;;;;;1.00;1.00;;;;;13.31;66.33;101991.16;2068030;28;47239;-61
2023/02/19 03:47:53;;;;;;;;;1.00;1.00;;;;;13.29;66.17;101985.84;2069087;28;46047;-60
2023/02/19 03:49:03;;;;;;;;;0.00;0.00;;;;;13.27;66.08;101986.78;2065895;28;46586;-60
2023/02/19 03:50:47;;;;;;;;;1.00;1.00;;;;;13.25;65.83;101989.47;2071446;28;46557;-60
2023/02/19 03:52:11;;;;;;;;;2.50;1.00;;;;;13.23;65.67;101993.94;2056178;28;45710;-60
2023/02/19 03:53:26;;;;;;;;;0.75;0.75;;;;;13.23;65.52;102002.81;2063471;28;46657;-60
2023/02/19 03:55:08;;;;;;;;;1.25;1.25;;;;;13.25;65.67;102003.66;2063163;28;46455;-60
2023/02/19 03:56:15;;;;;;;;;2.00;1.50;;;;;13.29;65.55;102003.63;2035727;28;46658;-60
2023/02/19 03:57:24;;;;;;;;;0.25;0.25;;;;;13.31;65.65;102001.81;2040359;28;46447;-60
2023/02/19 03:58:31;;;;;;;;;0.50;0.50;;;;;13.33;65.62;102008.00;2039027;28;47060;-60
2023/02/19 03:59:49;;;;;;;;;1.00;1.00;;;;;13.35;65.44;102003.56;2038773;28;46622;-61
2023/02/19 04:01:07;;;;;;;;;1.00;1.00;;;;;13.37;65.48;102015.97;2039072;28;46610;-61
2023/02/19 04:02:18;;;;;;;;;1.00;1.00;;;;;13.38;65.34;102009.72;2037908;28;46681;-61
2023/02/19 04:03:38;;;;;;;;;1.00;1.00;;;;;13.38;65.29;102015.06;2038498;28;46817;-60
2023/02/19 04:04:48;;;;;;;;;1.00;1.00;;;;;13.41;64.97;102014.13;2039169;28;46441;-61
2023/02/19 04:06:00;;;;;;;;;2.25;2.25;;;;;13.41;64.91;102015.03;2038143;28;46893;-60
2023/02/19 04:07:00;;;;;;;;;0.75;0.50;;;;;13.42;64.63;102015.91;2039677;28;46037;-62
2023/02/19 04:08:11;;;;;;;;;1.00;1.00;;;;;13.43;64.60;102023.88;2038403;28;46482;-59
2023/02/19 04:09:13;;;;;;;;;1.00;0.75;;;;;13.43;64.22;102025.66;2039096;28;46727;-59
2023/02/19 04:10:17;;;;;;;;;1.75;1.00;;;;;13.44;64.34;102027.44;2038823;28;46957;-63
2023/02/19 04:11:20;;;;;;;;;0.00;0.00;;;;;13.44;64.07;102024.75;2038875;28;46185;-60
2023/02/19 04:12:22;;;;;;;;;0.75;0.00;;;;;13.43;64.21;102025.66;2039336;28;46673;-61
2023/02/19 04:13:31;;;;;;;;;0.00;0.00;;;;;13.42;64.21;102023.91;2038203;28;46521;-61
2023/02/19 04:14:39;;;;;;;;;1.25;1.25;;;;;13.41;63.96;102017.69;2031683;28;46343;-60
2023/02/19 04:15:44;;;;;;;;;1.00;1.00;;;;;13.41;63.84;102023.03;2032122;28;46612;-61
2023/02/19 04:16:49;;;;;;;;;0.25;0.25;;;;;13.41;63.70;102025.69;2038714;28;46764;-60
2023/02/19 04:17:56;;;;;;;;;1.00;1.00;;;;;13.41;63.73;102016.81;2031677;28;46025;-60
2023/02/19 04:19:05;;;;;;;;;1.25;1.25;;;;;13.42;63.61;102024.78;2025993;29;46690;-61
2023/02/19 04:20:08;;;;;;;;;0.00;0.00;;;;;13.42;63.60;102031.91;2038037;28;45957;-62
2023/02/19 04:21:09;;;;;;;;;0.00;0.00;;;;;13.41;63.61;102020.34;2038564;28;47870;-60
2023/02/19 04:22:11;;;;;;;;;0.33;0.00;;;;;13.42;63.94;102023.91;2039103;28;46720;-61
2023/02/19 04:23:17;;;;;;;;;0.00;0.00;;;;;13.42;63.66;102023.91;2038744;28;46796;-60
2023/02/19 04:24:39;;;;;;;;;1.25;1.00;;;;;13.43;63.59;102021.22;2038695;28;46912;-61
2023/02/19 04:25:44;;;;;;;;;1.00;0.00;;;;;13.44;63.76;102022.97;2038094;28;46604;-61
2023/02/19 04:26:45;;;;;;;;;0.00;0.00;;;;;13.45;63.71;102026.53;2038871;28;46396;-59
2023/02/19 04:27:45;;;;;;;;;1.25;0.00;;;;;13.45;63.62;102027.41;2041110;28;46077;-60
2023/02/19 04:28:46;;;;;;;;;3.33;2.00;;;;;13.45;63.50;102027.41;2047133;28;46164;-59
2023/02/19 04:29:46;;;;;;;;;1.00;0.00;;;;;13.47;63.53;102032.75;2035659;28;46512;-60
2023/02/19 04:30:46;;;;;;;;;0.00;0.00;;;;;13.45;63.61;102029.19;2033380;28;46363;-59
2023/02/19 04:31:47;;;;;;;;;0.00;0.00;;;;;13.46;63.79;102030.94;2046938;28;46716;-60
2023/02/19 04:32:47;;;;;;;;;0.00;0.00;;;;;13.48;63.60;102031.84;2079646;28;45524;-62
2023/02/19 04:33:48;;;;;;;;;2.00;1.33;;;;;13.48;63.37;102038.06;2077565;28;46782;-61
2023/02/19 04:34:48;;;;;;;;;2.33;2.33;;;;;13.47;63.62;102030.97;2072485;28;46283;-61
2023/02/19 04:35:48;;;;;;;;;2.33;1.33;;;;;13.47;63.58;102043.41;2092234;28;46643;-62
2023/02/19 04:36:48;;;;;;;;;0.00;0.00;;;;;13.47;63.68;102038.06;2096320;28;46960;-60
2023/02/19 04:37:49;;;;;;;;;0.00;0.00;;;;;13.46;63.50;102042.50;2081386;28;46487;-60
2023/02/19 04:38:49;;;;;;;;;0.00;0.00;;;;;13.47;63.54;102041.63;2072090;28;46277;-61
2023/02/19 04:39:49;;;;;;;;;0.67;0.67;;;;;13.46;63.69;102031.84;2080563;28;46648;-61
2023/02/19 04:40:50;;;;;;;;;0.00;0.00;;;;;13.47;63.58;102038.06;2082183;28;46738;-60
2023/02/19 04:41:50;;;;;;;;;0.00;0.00;;;;;13.46;63.14;102037.16;2088456;28;45995;-61
2023/02/19 04:42:50;;;;;;;;;1.00;1.00;;;;;13.45;63.20;102039.84;2086945;28;46706;-61
2023/02/19 04:43:51;;;;;;;;;2.00;1.00;;;;;13.44;63.33;102030.09;2088434;28;46557;-62
2023/02/19 04:44:51;;;;;;;;;0.00;0.00;;;;;13.44;63.35;102038.09;2080521;28;46253;-62
2023/02/19 04:45:51;;;;;;;;;0.00;0.00;;;;;13.42;63.31;102040.78;2082285;28;46445;-61
2023/02/19 04:46:52;;;;;;;;;1.00;1.00;;;;;13.42;62.99;102035.44;2081891;28;46228;-61
2023/02/19 04:47:52;;;;;;;;;1.00;1.00;;;;;13.40;63.09;102037.25;2081030;28;46077;-60
2023/02/19 04:48:52;;;;;;;;;0.67;0.67;;;;;13.40;62.73;102047.91;2075322;28;46635;-59
2023/02/19 04:49:53;;;;;;;;;3.00;1.00;;;;;13.38;63.20;102036.41;2079062;28;46491;-61
2023/02/19 04:50:53;;;;;;;;;0.33;0.33;;;;;13.38;62.98;102044.41;2085282;28;45263;-60
2023/02/19 04:51:54;;;;;;;;;0.00;0.00;;;;;13.38;63.06;102044.41;2087224;28;46011;-62
2023/02/19 04:52:54;;;;;;;;;1.00;1.00;;;;;13.38;63.07;102035.53;2088132;28;44934;-60
2023/02/19 04:53:55;;;;;;;;;0.00;0.00;;;;;13.39;63.20;102039.94;2087139;28;46170;-62
2023/02/19 04:54:55;;;;;;;;;1.00;1.00;;;;;13.38;62.92;102039.06;2080480;28;45849;-61
2023/02/19 04:55:55;;;;;;;;;2.00;2.00;;;;;13.39;62.79;102042.63;2085164;28;46213;-60
2023/02/19 04:56:56;;;;;;;;;0.67;0.67;;;;;13.40;63.04;102044.38;2075927;28;46596;-61
2023/02/19 04:57:56;;;;;;;;;0.00;0.00;;;;;13.40;63.01;102042.59;2088872;28;46286;-60
2023/02/19 04:58:57;;;;;;;;;1.00;0.00;;;;;13.40;62.88;102050.59;2091230;28;46416;-61
2023/02/19 04:59:57;;;;;;;;;0.00;0.00;;;;;13.41;62.76;102055.03;2096627;28;46887;-62
2023/02/19 05:00:57;;;;;;;;;0.33;0.33;;;;;13.40;62.88;102053.25;2086813;28;46649;-60
2023/02/19 05:01:58;;;;;;;;;1.00;1.00;;;;;13.41;62.63;102055.03;2079441;28;46259;-61
2023/02/19 05:02:59;;;;;;;;;1.00;1.00;;;;;13.41;62.67;102060.34;2088381;28;46284;-61
2023/02/19 05:03:59;;;;;;;;;2.00;2.00;;;;;13.43;62.42;102061.22;2081905;28;45737;-61
2023/02/19 05:04:59;;;;;;;;;0.00;0.00;;;;;13.44;62.44;102065.63;2084644;28;47197;-62
2023/02/19 05:06:04;;;;;;;;;0.00;0.00;;;;;13.43;62.39;102063.88;2080167;28;46751;-62
2023/02/19 05:07:04;;;;;;;;;1.00;1.00;;;;;13.44;62.27;102070.97;2090167;28;47094;-60
2023/02/19 05:08:05;;;;;;;;;0.00;0.00;;;;;13.46;62.35;102066.50;2087554;28;46196;-60
2023/02/19 05:09:05;;;;;;;;;1.00;0.00;;;;;13.48;62.30;102064.72;2079798;28;46239;-60
2023/02/19 05:10:06;;;;;;;;;1.33;1.00;;;;;13.49;62.45;102068.28;2083300;28;45609;-60
2023/02/19 05:11:09;;;;;;;;;1.33;1.00;;;;;13.50;62.12;102067.38;2079568;28;46902;-62
2023/02/19 05:12:09;;;;;;;;;1.00;1.00;;;;;13.51;61.78;102071.78;2078439;28;46776;-61
2023/02/19 05:13:10;;;;;;;;;1.00;1.00;;;;;13.52;62.09;102073.56;2079772;28;46504;-61
2023/02/19 05:14:10;;;;;;;;;1.00;0.33;;;;;13.52;62.03;102070.91;2080262;28;46536;-61
2023/02/19 05:15:10;;;;;;;;;4.00;1.67;;;;;13.54;62.00;102071.75;2080233;28;46673;-61
2023/02/19 05:16:14;;;;;;;;;1.00;1.00;;;;;13.54;61.78;102072.63;2085925;28;45109;-61
2023/02/19 05:17:15;;;;;;;;;1.75;1.00;;;;;13.55;61.97;102076.19;2079415;28;47239;-61
2023/02/19 05:18:15;;;;;;;;;1.00;1.00;;;;;13.54;62.00;102077.97;2074733;28;46498;-61
2023/02/19 05:19:15;;;;;;;;;0.00;0.00;;;;;13.54;61.46;102072.63;2079912;28;46499;-61
2023/02/19 05:20:16;;;;;;;;;1.00;1.00;;;;;13.54;61.60;102082.41;2087328;28;46380;-60